Terminal Aerodrome Forecast
Issued by NWS

Home | Current Version | Previous Version | Text Only | Print | Product List | Glossary On
Versions: 1 2 3 4 5 6 7 8 9 10 11 12 13 14 15 16 17 18
408
FTUS44 KLZK 220219 AAA
TAFLLQ
TAF AMD
KLLQ 220219Z 2202/2224 00000KT P6SM BKN009 BKN080
     FM220500 32002KT 3SM BR BKN007 OVC012
     FM221400 35004KT 3SM BR BKN015
     FM221600 02006KT P6SM FEW025 SCT040 SCT250
     FM222000 14004KT P6SM SCT250=

USA.gov is the U.S. government's official web portal to all federal, state and local government web resources and services.